Time;durP1;ratioP1;P1;durP2;ratioP2;P2;SDS_P1;SDS_P2;PMS_P1;PMS_P2;Temp;Humidity;BMP_temperature;BMP_pressure;BME280_temperature;BME280_humidity;BME280_pressure;Samples;Min_cycle;Max_cycle;Signal;HPM_P1;HPM_P2
2023/07/02 07:37:13;;;;;;;11.55;5.60;;;22.90;99.90;;;;;;4992364;23;20247;-75
2023/07/02 07:39:40;;;;;;;13.32;4.97;;;22.90;99.90;;;;;;4976982;28;20211;-75
2023/07/02 07:42:07;;;;;;;10.13;5.28;;;22.80;99.90;;;;;;4977643;28;20291;-74
2023/07/02 07:44:34;;;;;;;15.13;5.35;;;22.80;99.90;;;;;;4963839;28;20224;-74
2023/07/02 07:47:01;;;;;;;15.52;4.82;;;22.70;99.90;;;;;;4958122;28;20215;-78
2023/07/02 07:49:27;;;;;;;12.90;5.05;;;22.60;99.90;;;;;;4957974;28;20212;-76
2023/07/02 07:51:54;;;;;;;12.65;5.00;;;22.60;99.90;;;;;;4957884;28;20214;-77
2023/07/02 07:54:24;;;;;;;14.07;5.13;;;22.60;99.90;;;;;;4957773;28;20227;-74
2023/07/02 07:56:51;;;;;;;12.55;5.03;;;22.50;99.90;;;;;;4958003;28;20303;-77
2023/07/02 07:59:18;;;;;;;12.60;5.20;;;22.60;99.90;;;;;;4958966;28;20330;-75
2023/07/02 08:01:46;;;;;;;12.15;5.32;;;22.90;99.90;;;;;;4957326;28;20559;-74
2023/07/02 08:04:13;;;;;;;12.13;4.97;;;23.00;99.90;;;;;;4958162;28;20713;-78
2023/07/02 08:06:40;;;;;;;15.77;5.07;;;22.80;99.90;;;;;;4957577;28;20216;-74
2023/07/02 08:09:06;;;;;;;12.77;4.53;;;22.70;99.90;;;;;;4957022;28;20203;-75
2023/07/02 08:11:35;;;;;;;12.43;5.15;;;22.90;99.90;;;;;;4957241;28;20208;-75
2023/07/02 08:14:01;;;;;;;12.70;4.35;;;23.20;99.90;;;;;;4956971;28;20295;-75
2023/07/02 08:16:28;;;;;;;12.10;4.18;;;23.20;99.90;;;;;;4956957;28;20212;-74
2023/07/02 08:18:55;;;;;;;12.32;4.40;;;23.20;99.90;;;;;;4956933;28;20270;-73
2023/07/02 08:21:22;;;;;;;10.15;4.05;;;23.40;99.90;;;;;;4956859;28;20204;-74
2023/07/02 08:23:49;;;;;;;10.35;4.60;;;23.40;99.90;;;;;;4956579;28;20224;-76
2023/07/02 08:26:15;;;;;;;12.95;5.20;;;23.80;99.90;;;;;;4956732;28;20208;-76
2023/07/02 08:28:44;;;;;;;14.57;4.65;;;24.00;99.90;;;;;;4957097;28;20295;-73
2023/07/02 08:31:10;;;;;;;12.27;5.20;;;24.30;99.90;;;;;;4956785;28;20204;-76
2023/07/02 08:33:37;;;;;;;10.70;4.68;;;24.40;99.90;;;;;;4956352;28;20224;-71
2023/07/02 08:36:04;;;;;;;12.15;4.65;;;24.50;99.90;;;;;;4956673;28;20208;-74
2023/07/02 08:38:31;;;;;;;13.25;5.10;;;24.60;99.90;;;;;;4956192;28;20232;-74
2023/07/02 08:40:58;;;;;;;10.80;4.90;;;24.60;99.90;;;;;;4956415;28;20667;-75
2023/07/02 08:43:27;;;;;;;11.20;4.90;;;24.70;99.30;;;;;;4955765;28;20538;-71
2023/07/02 08:45:55;;;;;;;16.48;5.70;;;24.60;99.90;;;;;;4955900;28;20208;-73
2023/07/02 08:48:24;;;;;;;13.93;5.57;;;24.20;99.90;;;;;;4956024;28;20212;-71
2023/07/02 08:50:51;;;;;;;11.93;5.15;;;24.30;99.90;;;;;;4956601;28;20208;-73
2023/07/02 08:53:18;;;;;;;8.35;4.53;;;24.00;99.90;;;;;;4955899;28;20227;-73
2023/07/02 08:55:45;;;;;;;11.30;5.10;;;23.50;99.90;;;;;;4956172;28;20307;-73
2023/07/02 08:58:12;;;;;;;11.65;4.55;;;23.00;99.90;;;;;;4956208;28;20326;-73
2023/07/02 09:00:39;;;;;;;12.40;4.80;;;23.10;99.90;;;;;;4956143;28;20552;-73
2023/07/02 09:03:15;;;;;;;14.38;4.93;;;23.30;99.90;;;;;;4956075;28;20208;-73
2023/07/02 09:05:50;;;;;;;13.25;5.55;;;23.40;99.90;;;;;;4956154;28;20207;-74
2023/07/02 09:08:24;;;;;;;11.43;4.97;;;23.30;99.90;;;;;;4956382;28;20207;-73
2023/07/02 09:10:51;;;;;;;11.70;4.85;;;22.90;99.90;;;;;;4956388;28;20204;-73
2023/07/02 09:13:18;;;;;;;13.00;5.43;;;22.70;99.90;;;;;;4955956;28;20614;-73
2023/07/02 09:15:45;;;;;;;13.40;5.68;;;22.50;99.90;;;;;;4949488;28;20235;-74
2023/07/02 09:18:21;;;;;;;13.60;5.93;;;22.60;99.90;;;;;;4955495;28;20224;-74
2023/07/02 09:20:50;;;;;;;14.15;5.50;;;22.70;99.90;;;;;;4955531;28;20247;-75
2023/07/02 09:23:17;;;;;;;10.68;4.65;;;22.50;99.90;;;;;;4955737;28;20224;-74
2023/07/02 09:25:44;;;;;;;10.10;4.63;;;22.40;99.90;;;;;;4955391;28;20204;-71
2023/07/02 09:28:20;;;;;;;15.50;5.57;;;22.20;99.90;;;;;;4955556;28;20218;-74
2023/07/02 09:30:54;;;;;;;10.73;5.10;;;22.10;99.90;;;;;;4955215;28;20207;-73
2023/07/02 09:33:22;;;;;;;12.95;5.57;;;22.00;99.90;;;;;;4955691;28;20224;-74
2023/07/02 09:35:50;;;;;;;10.70;4.53;;;22.00;99.90;;;;;;4955524;28;20208;-75
2023/07/02 09:38:16;;;;;;;12.32;5.07;;;22.20;99.90;;;;;;4955214;28;20236;-73
2023/07/02 09:40:47;;;;;;;10.43;4.55;;;22.10;99.90;;;;;;4955209;28;20219;-73
2023/07/02 09:43:15;;;;;;;17.73;4.85;;;21.90;99.90;;;;;;4955443;28;20674;-74
2023/07/02 09:45:44;;;;;;;11.00;5.10;;;21.80;99.90;;;;;;4955015;28;20282;-74
2023/07/02 09:48:14;;;;;;;9.55;4.50;;;21.90;99.90;;;;;;4955583;28;20212;-73
2023/07/02 09:50:43;;;;;;;11.93;5.03;;;22.60;99.90;;;;;;4954833;28;20267;-73
2023/07/02 09:53:10;;;;;;;8.38;4.72;;;23.60;99.90;;;;;;4955166;28;20545;-73
2023/07/02 09:55:37;;;;;;;11.18;4.60;;;24.10;99.90;;;;;;4955138;28;20208;-74
2023/07/02 09:58:04;;;;;;;10.98;4.32;;;23.80;99.80;;;;;;4955072;28;20214;-73
2023/07/02 10:00:31;;;;;;;12.43;5.13;;;23.50;99.30;;;;;;4955518;28;20200;-76
2023/07/02 10:03:00;;;;;;;11.77;5.32;;;22.80;99.50;;;;;;4955003;28;20218;-76
2023/07/02 10:05:27;;;;;;;11.48;4.65;;;22.30;99.90;;;;;;4954547;28;20239;-72
2023/07/02 10:07:57;;;;;;;11.63;5.53;;;22.20;99.90;;;;;;4954557;28;20208;-73
2023/07/02 10:10:28;;;;;;;10.48;4.43;;;22.10;99.90;;;;;;4954228;28;20285;-72
2023/07/02 10:12:55;;;;;;;11.52;4.25;;;22.00;99.90;;;;;;4949406;28;20687;-72
2023/07/02 10:15:27;;;;;;;11.30;4.57;;;22.00;99.90;;;;;;4943154;29;20204;-73
2023/07/02 10:17:57;;;;;;;11.50;4.60;;;22.10;99.90;;;;;;4954833;28;20220;-73
2023/07/02 10:20:35;;;;;;;14.73;4.75;;;22.10;99.90;;;;;;4954666;28;20228;-73
2023/07/02 10:23:04;;;;;;;15.48;5.13;;;22.50;99.90;;;;;;4954533;28;20544;-73
2023/07/02 10:25:32;;;;;;;12.02;4.72;;;22.70;99.90;;;;;;4954678;28;20211;-73
2023/07/02 10:28:00;;;;;;;11.90;4.68;;;22.90;99.90;;;;;;4954641;28;20563;-73
2023/07/02 10:30:34;;;;;;;11.57;4.75;;;23.30;99.90;;;;;;4954515;28;20204;-73
2023/07/02 10:33:12;;;;;;;11.88;4.50;;;23.70;99.50;;;;;;4954421;28;20209;-72
2023/07/02 10:35:41;;;;;;;12.77;4.28;;;24.00;98.90;;;;;;4954163;28;20203;-73
2023/07/02 10:38:15;;;;;;;15.23;5.20;;;24.20;98.40;;;;;;4972229;28;20222;-73
2023/07/02 10:40:43;;;;;;;14.27;5.13;;;24.20;98.60;;;;;;4959381;28;20207;-73
2023/07/02 10:43:10;;;;;;;13.50;4.90;;;23.90;98.40;;;;;;4954296;28;20218;-72
2023/07/02 10:45:37;;;;;;;10.55;4.63;;;23.70;99.30;;;;;;4953561;28;20678;-72
2023/07/02 10:48:05;;;;;;;12.07;4.68;;;23.20;98.90;;;;;;4953138;28;20208;-71
2023/07/02 10:50:32;;;;;;;9.85;4.32;;;23.10;99.90;;;;;;4953575;28;20211;-72
2023/07/02 10:52:59;;;;;;;8.52;4.18;;;22.90;99.40;;;;;;4953980;28;20204;-72
2023/07/02 10:55:28;;;;;;;13.07;5.53;;;22.90;99.80;;;;;;4953655;28;20210;-72
2023/07/02 10:58:05;;;;;;;9.80;4.40;;;22.90;99.10;;;;;;4953303;28;20212;-72
2023/07/02 11:00:32;;;;;;;13.25;5.30;;;23.00;98.00;;;;;;4953330;28;20234;-72
2023/07/02 11:02:59;;;;;;;10.85;4.78;;;23.20;99.00;;;;;;4949160;28;20212;-73
2023/07/02 11:05:26;;;;;;;14.45;5.05;;;23.50;99.40;;;;;;4953950;28;20200;-72
2023/07/02 11:07:56;;;;;;;12.80;4.75;;;24.00;99.90;;;;;;4953125;28;20685;-72
2023/07/02 11:10:25;;;;;;;10.73;4.78;;;24.40;99.50;;;;;;4953202;28;20200;-72
2023/07/02 11:12:53;;;;;;;15.45;5.38;;;24.30;98.80;;;;;;4953524;28;20263;-72
2023/07/02 11:15:21;;;;;;;11.75;5.07;;;23.80;97.80;;;;;;4953621;28;20232;-73
2023/07/02 11:17:48;;;;;;;11.23;4.57;;;23.70;98.80;;;;;;4953200;28;20263;-72
2023/07/02 11:20:15;;;;;;;10.10;4.45;;;23.80;99.10;;;;;;4953005;28;20227;-73
2023/07/02 11:22:42;;;;;;;9.63;4.22;;;24.20;99.60;;;;;;4953138;28;20212;-73
2023/07/02 11:25:13;;;;;;;13.05;4.65;;;24.30;98.80;;;;;;4953287;28;20228;-72
2023/07/02 11:27:40;;;;;;;15.10;4.68;;;24.20;97.90;;;;;;4953405;28;20579;-73
2023/07/02 11:30:09;;;;;;;13.77;4.53;;;24.20;98.10;;;;;;4953755;28;20243;-73
2023/07/02 11:32:49;;;;;;;11.30;4.20;;;24.10;99.10;;;;;;4944265;29;20214;-72
2023/07/02 11:35:16;;;;;;;8.43;4.07;;;23.80;97.80;;;;;;4953599;28;20223;-73
2023/07/02 11:37:43;;;;;;;12.32;4.25;;;23.60;98.10;;;;;;4953513;28;20738;-72
2023/07/02 11:40:11;;;;;;;9.55;4.43;;;23.60;96.60;;;;;;4955587;28;20231;-72
2023/07/02 11:42:37;;;;;;;13.18;4.53;;;23.70;97.20;;;;;;4956482;28;20210;-73
2023/07/02 11:45:05;;;;;;;6.93;3.65;;;23.60;98.00;;;;;;4956880;28;20232;-72
2023/07/02 11:47:33;;;;;;;11.20;3.90;;;23.80;97.30;;;;;;4956590;28;20204;-72
2023/07/02 11:50:00;;;;;;;9.52;3.70;;;24.10;97.70;;;;;;4956372;28;20219;-72
2023/07/02 11:52:27;;;;;;;13.43;4.15;;;24.30;97.00;;;;;;4956001;28;20659;-74
2023/07/02 11:54:54;;;;;;;9.57;3.78;;;24.50;96.40;;;;;;4956839;28;20224;-73
2023/07/02 11:57:21;;;;;;;11.98;3.90;;;24.40;96.10;;;;;;4956789;28;20207;-75
2023/07/02 11:59:49;;;;;;;9.18;3.60;;;24.40;95.40;;;;;;4945588;28;20240;-73
2023/07/02 12:02:16;;;;;;;9.82;4.22;;;24.30;96.20;;;;;;4956803;28;20210;-72
2023/07/02 12:04:44;;;;;;;11.23;4.43;;;24.30;95.90;;;;;;4956026;28;20335;-73
2023/07/02 12:07:11;;;;;;;9.80;3.95;;;24.40;96.50;;;;;;4956431;28;20206;-73
2023/07/02 12:09:38;;;;;;;9.45;3.67;;;24.80;96.30;;;;;;4956122;28;20702;-73
2023/07/02 12:12:06;;;;;;;9.27;4.18;;;25.00;96.50;;;;;;4956642;28;20208;-74
2023/07/02 12:14:33;;;;;;;9.40;3.40;;;24.90;95.70;;;;;;4956540;28;20228;-73
2023/07/02 12:17:00;;;;;;;11.02;4.10;;;24.60;95.90;;;;;;4956556;28;20290;-72
2023/07/02 12:19:26;;;;;;;10.15;3.85;;;24.40;95.40;;;;;;4956734;28;20243;-74
2023/07/02 12:21:54;;;;;;;8.30;3.83;;;24.60;95.10;;;;;;4956223;28;20240;-73
2023/07/02 12:24:21;;;;;;;9.02;3.53;;;24.60;95.10;;;;;;4956630;28;20250;-72
2023/07/02 12:26:48;;;;;;;12.57;3.90;;;24.20;95.00;;;;;;4956251;28;20208;-73
2023/07/02 12:29:15;;;;;;;7.70;3.92;;;24.50;94.10;;;;;;4955792;28;20208;-73
2023/07/02 12:31:42;;;;;;;8.48;3.22;;;24.50;95.40;;;;;;4955560;28;20201;-73
2023/07/02 12:34:08;;;;;;;12.77;4.00;;;24.70;95.30;;;;;;4956055;28;20257;-73
2023/07/02 12:36:35;;;;;;;10.35;3.83;;;24.60;94.80;;;;;;4955605;28;20214;-73
2023/07/02 12:39:03;;;;;;;11.02;3.95;;;24.70;94.50;;;;;;4952226;28;20623;-71
2023/07/02 12:41:30;;;;;;;11.43;3.88;;;24.80;95.70;;;;;;4954784;28;20214;-72
2023/07/02 12:43:57;;;;;;;9.25;3.53;;;24.70;94.90;;;;;;4955114;28;20224;-71
2023/07/02 12:46:24;;;;;;;7.32;3.70;;;24.80;95.70;;;;;;4955740;28;20208;-72
2023/07/02 12:48:51;;;;;;;9.35;3.72;;;24.80;95.50;;;;;;4954263;28;20204;-71
2023/07/02 12:51:18;;;;;;;9.77;3.63;;;24.80;95.10;;;;;;4954548;28;20204;-71
2023/07/02 12:53:44;;;;;;;11.10;4.03;;;24.70;94.20;;;;;;4953843;28;20725;-71
2023/07/02 12:56:13;;;;;;;8.75;3.88;;;24.50;94.50;;;;;;4953835;28;20200;-71
2023/07/02 12:58:39;;;;;;;9.10;3.78;;;24.30;94.60;;;;;;4953304;28;20727;-72
2023/07/02 13:01:06;;;;;;;9.80;4.15;;;24.30;95.30;;;;;;4949910;28;20239;-72
2023/07/02 13:03:33;;;;;;;13.63;3.80;;;24.20;95.10;;;;;;4937608;29;20224;-72
2023/07/02 13:06:00;;;;;;;9.80;3.75;;;24.30;95.40;;;;;;4939778;29;20308;-71
2023/07/02 13:08:27;;;;;;;8.45;3.42;;;24.30;96.00;;;;;;4937356;29;20209;-71
2023/07/02 13:10:53;;;;;;;9.20;3.63;;;24.40;94.50;;;;;;4952188;29;20219;-71
2023/07/02 13:13:22;;;;;;;8.95;3.88;;;24.40;95.30;;;;;;4953947;28;20228;-71
2023/07/02 13:15:48;;;;;;;9.57;3.67;;;24.20;95.10;;;;;;4954389;28;20216;-72
2023/07/02 13:18:15;;;;;;;9.10;4.00;;;24.00;95.70;;;;;;4954803;28;20292;-71
2023/07/02 13:20:42;;;;;;;9.23;3.90;;;24.10;95.60;;;;;;4954459;28;20326;-70
2023/07/02 13:23:09;;;;;;;10.88;3.95;;;24.20;95.70;;;;;;4954508;28;20204;-70
2023/07/02 13:25:36;;;;;;;11.65;3.50;;;24.20;95.50;;;;;;4953826;28;20544;-71
2023/07/02 13:28:03;;;;;;;9.75;3.67;;;24.20;95.50;;;;;;4954529;28;20211;-72
2023/07/02 13:30:31;;;;;;;10.10;4.60;;;24.30;95.10;;;;;;4954368;28;20216;-72
2023/07/02 13:32:58;;;;;;;8.93;3.38;;;24.40;94.70;;;;;;4954631;28;20211;-72
2023/07/02 13:35:24;;;;;;;9.05;3.60;;;24.40;95.20;;;;;;4954654;28;20210;-73
2023/07/02 13:37:52;;;;;;;9.38;3.67;;;24.60;95.40;;;;;;4980344;23;20238;-69
2023/07/02 13:40:19;;;;;;;7.70;3.63;;;24.80;94.90;;;;;;4971775;28;20238;-74
2023/07/02 13:42:46;;;;;;;10.68;3.80;;;24.90;95.20;;;;;;4974196;28;20744;-73
2023/07/02 13:45:13;;;;;;;7.88;3.63;;;25.00;95.80;;;;;;4955778;28;20328;-68
2023/07/02 13:47:41;;;;;;;9.48;3.60;;;24.90;95.10;;;;;;4954906;28;20214;-68
2023/07/02 13:50:08;;;;;;;9.25;3.80;;;24.80;95.20;;;;;;4954536;28;20208;-68
2023/07/02 13:52:35;;;;;;;6.68;3.05;;;24.70;94.80;;;;;;4954495;28;20582;-69
2023/07/02 13:55:02;;;;;;;10.35;3.42;;;24.70;95.20;;;;;;4953947;28;20219;-69
2023/07/02 13:57:29;;;;;;;9.65;3.35;;;25.10;94.20;;;;;;4953776;28;20643;-68
2023/07/02 13:59:57;;;;;;;8.38;3.08;;;24.90;94.20;;;;;;4954529;28;20239;-72
2023/07/02 14:02:24;;;;;;;8.63;3.70;;;25.10;95.00;;;;;;4954217;28;20667;-70
2023/07/02 14:04:51;;;;;;;8.95;3.75;;;24.90;94.90;;;;;;4954246;28;20721;-73
2023/07/02 14:07:18;;;;;;;9.32;3.92;;;24.90;94.20;;;;;;4954496;28;20222;-68
2023/07/02 14:09:45;;;;;;;11.48;3.88;;;24.90;94.90;;;;;;4953066;28;20218;-74
2023/07/02 14:12:12;;;;;;;9.05;3.47;;;25.00;94.60;;;;;;4954128;28;20216;-70
2023/07/02 14:14:39;;;;;;;10.98;3.70;;;24.70;94.90;;;;;;4954279;28;20228;-71
2023/07/02 14:17:07;;;;;;;10.93;3.90;;;24.50;95.00;;;;;;4954200;28;20207;-74
2023/07/02 14:19:34;;;;;;;7.57;3.13;;;24.40;95.20;;;;;;4954025;28;20211;-69
2023/07/02 14:22:01;;;;;;;7.50;3.50;;;24.50;94.60;;;;;;4954402;28;20212;-72
2023/07/02 14:24:30;;;;;;;8.18;3.58;;;24.50;95.40;;;;;;4953444;28;20231;-73
2023/07/02 14:26:57;;;;;;;8.75;3.67;;;24.70;95.30;;;;;;4953901;28;20266;-74
2023/07/02 14:29:23;;;;;;;7.43;3.42;;;24.60;95.00;;;;;;4953979;28;20208;-73
2023/07/02 14:31:50;;;;;;;9.13;3.90;;;24.60;94.80;;;;;;4953227;28;20212;-71
2023/07/02 14:34:18;;;;;;;9.75;3.42;;;24.60;95.20;;;;;;4954138;28;20717;-73
2023/07/02 14:36:45;;;;;;;9.52;3.42;;;24.60;95.00;;;;;;4954148;28;20323;-72
2023/07/02 14:39:12;;;;;;;9.52;3.83;;;24.70;94.30;;;;;;4954325;28;20204;-76
2023/07/02 14:41:39;;;;;;;10.57;3.67;;;24.80;94.50;;;;;;4954549;28;20266;-73
2023/07/02 14:44:07;;;;;;;13.43;5.85;;;25.00;95.00;;;;;;4954014;28;20227;-73
2023/07/02 14:46:33;;;;;;;11.23;4.53;;;25.30;95.20;;;;;;4954833;28;20212;-72
2023/07/02 14:49:00;;;;;;;8.20;3.55;;;25.40;94.90;;;;;;4945572;28;20201;-74
2023/07/02 14:51:28;;;;;;;10.90;3.88;;;25.30;94.70;;;;;;4945771;28;20207;-73
2023/07/02 14:53:56;;;;;;;10.27;3.75;;;25.40;94.10;;;;;;4950542;28;20228;-74
2023/07/02 14:56:23;;;;;;;7.82;3.20;;;25.30;93.60;;;;;;4953775;28;20256;-75
2023/07/02 14:58:50;;;;;;;9.45;3.38;;;25.20;93.90;;;;;;4945322;28;20205;-74
2023/07/02 15:01:17;;;;;;;7.78;3.72;;;25.10;94.40;;;;;;4947143;29;20246;-74
2023/07/02 15:03:44;;;;;;;9.50;3.38;;;24.90;94.60;;;;;;4941836;29;20331;-73
2023/07/02 15:06:13;;;;;;;8.73;3.22;;;25.00;94.10;;;;;;4933716;29;20219;-72
2023/07/02 15:08:41;;;;;;;10.13;3.33;;;25.00;94.60;;;;;;4935089;29;20217;-72
2023/07/02 15:11:09;;;;;;;7.47;3.38;;;24.70;94.40;;;;;;4934335;29;20211;-73
2023/07/02 15:13:37;;;;;;;8.32;3.15;;;24.90;94.60;;;;;;4935471;29;20319;-73
2023/07/02 15:16:05;;;;;;;9.13;3.88;;;25.00;94.20;;;;;;4939791;28;20614;-73
2023/07/02 15:18:32;;;;;;;9.18;3.63;;;25.20;94.50;;;;;;4939754;29;20267;-70
2023/07/02 15:20:59;;;;;;;9.50;3.42;;;25.20;94.90;;;;;;4939757;29;20280;-73
2023/07/02 15:23:27;;;;;;;6.55;3.53;;;24.90;93.70;;;;;;4938841;29;20288;-74
2023/07/02 15:25:57;;;;;;;8.63;3.08;;;24.90;94.20;;;;;;4938240;29;20231;-74
2023/07/02 15:28:25;;;;;;;11.10;3.67;;;24.60;92.90;;;;;;4938227;29;20219;-74
2023/07/02 15:30:53;;;;;;;10.43;3.70;;;24.50;94.40;;;;;;4937980;29;20212;-74
2023/07/02 15:33:20;;;;;;;6.85;3.10;;;24.40;94.10;;;;;;4937976;29;20232;-74
2023/07/02 15:35:47;;;;;;;7.30;3.40;;;24.40;94.20;;;;;;4938475;29;20656;-74
2023/07/02 15:38:14;;;;;;;8.23;3.13;;;24.60;93.40;;;;;;4945851;29;20212;-74
2023/07/02 15:40:42;;;;;;;9.57;3.70;;;24.70;94.10;;;;;;4956987;28;20232;-71
2023/07/02 15:43:11;;;;;;;10.35;3.05;;;24.50;93.90;;;;;;4956439;28;20210;-72
2023/07/02 15:45:37;;;;;;;9.63;2.95;;;24.40;94.20;;;;;;4956387;28;20212;-74
2023/07/02 15:48:05;;;;;;;8.70;3.20;;;24.50;94.10;;;;;;4956881;28;20574;-74
2023/07/02 15:50:32;;;;;;;9.20;3.15;;;24.60;94.20;;;;;;4947779;28;20205;-74
2023/07/02 15:52:59;;;;;;;7.35;3.20;;;24.60;94.10;;;;;;4937089;29;20766;-74
2023/07/02 15:55:25;;;;;;;9.02;3.30;;;24.50;94.20;;;;;;4937312;29;20201;-73
2023/07/02 15:57:52;;;;;;;11.73;3.50;;;24.30;94.20;;;;;;4937407;29;20205;-67
2023/07/02 16:00:21;;;;;;;9.18;3.25;;;24.30;93.80;;;;;;4938010;29;20232;-70
2023/07/02 16:02:48;;;;;;;10.52;3.33;;;24.30;93.40;;;;;;4938156;29;20208;-68
2023/07/02 16:05:15;;;;;;;11.57;3.15;;;24.30;93.50;;;;;;4937989;29;20225;-70
2023/07/02 16:07:42;;;;;;;11.80;3.17;;;24.10;94.30;;;;;;4937929;29;20216;-74
2023/07/02 16:10:11;;;;;;;9.57;3.50;;;24.00;94.70;;;;;;4938166;29;20268;-67
2023/07/02 16:12:39;;;;;;;10.48;3.55;;;23.90;94.60;;;;;;4938489;29;20719;-72
2023/07/02 16:15:07;;;;;;;12.88;3.25;;;23.90;94.10;;;;;;4943772;29;20303;-71
2023/07/02 16:17:35;;;;;;;6.22;3.20;;;23.90;94.10;;;;;;4938153;29;20216;-74
2023/07/02 16:20:02;;;;;;;7.57;3.05;;;23.90;94.10;;;;;;4941303;29;20208;-74
2023/07/02 16:22:30;;;;;;;8.48;3.10;;;23.90;94.00;;;;;;4942903;29;20208;-74
2023/07/02 16:24:57;;;;;;;6.93;2.78;;;23.70;93.70;;;;;;4941832;29;20712;-74
2023/07/02 16:27:23;;;;;;;8.13;3.17;;;23.50;93.80;;;;;;4942611;29;20205;-74
2023/07/02 16:29:50;;;;;;;5.60;2.72;;;23.50;94.40;;;;;;4939153;29;20212;-75
2023/07/02 16:32:20;;;;;;;6.80;2.78;;;23.50;93.70;;;;;;4938198;29;20217;-74
2023/07/02 16:34:49;;;;;;;10.20;2.78;;;23.50;94.30;;;;;;4938317;29;20232;-74
2023/07/02 16:37:15;;;;;;;12.32;2.83;;;23.50;93.80;;;;;;4937612;29;20259;-74
2023/07/02 16:39:42;;;;;;;9.60;2.85;;;23.60;93.80;;;;;;4937457;29;20208;-70
2023/07/02 16:42:11;;;;;;;7.32;2.33;;;23.60;92.90;;;;;;4937398;29;20243;-73
2023/07/02 16:44:38;;;;;;;6.90;2.70;;;23.50;93.80;;;;;;4937610;29;20233;-75
2023/07/02 16:47:05;;;;;;;6.65;2.05;;;23.50;93.90;;;;;;4937610;29;20213;-74
2023/07/02 16:49:32;;;;;;;8.60;2.22;;;23.30;93.60;;;;;;4944585;29;20197;-74
2023/07/02 16:52:01;;;;;;;8.77;2.17;;;23.30;93.50;;;;;;4945514;29;20201;-74
2023/07/02 16:54:27;;;;;;;10.18;2.38;;;23.40;93.60;;;;;;4953506;28;20234;-74
2023/07/02 16:56:55;;;;;;;6.07;2.38;;;23.40;94.00;;;;;;4956446;28;20219;-74
2023/07/02 16:59:24;;;;;;;6.15;2.28;;;23.30;93.50;;;;;;4955846;28;20684;-74
2023/07/02 17:01:52;;;;;;;6.40;2.30;;;23.20;94.10;;;;;;4955890;28;20718;-74
2023/07/02 17:04:20;;;;;;;9.32;2.38;;;23.10;93.70;;;;;;4956365;28;20228;-74
2023/07/02 17:06:49;;;;;;;8.18;2.15;;;23.00;94.20;;;;;;4956166;28;20216;-75
2023/07/02 17:09:20;;;;;;;6.22;1.95;;;22.80;93.90;;;;;;4956193;28;20303;-74
2023/07/02 17:11:50;;;;;;;5.43;2.05;;;22.60;94.30;;;;;;4956028;28;20204;-70
2023/07/02 17:14:20;;;;;;;5.15;1.75;;;22.50;94.20;;;;;;4956121;28;20235;-73
2023/07/02 17:16:50;;;;;;;8.82;2.17;;;22.50;94.30;;;;;;4956177;28;20218;-74
2023/07/02 17:19:18;;;;;;;7.45;2.55;;;22.70;94.00;;;;;;4956328;28;20208;-74
2023/07/02 17:21:50;;;;;;;5.20;2.05;;;22.50;94.20;;;;;;4955719;28;20576;-73
2023/07/02 17:24:20;;;;;;;10.85;3.05;;;22.60;94.70;;;;;;4955742;28;20239;-75
2023/07/02 17:26:47;;;;;;;9.30;2.08;;;22.60;94.70;;;;;;4946951;28;20201;-73
2023/07/02 17:29:17;;;;;;;9.40;1.88;;;22.50;95.00;;;;;;4946409;29;20208;-74
2023/07/02 17:31:50;;;;;;;6.38;2.33;;;22.50;95.20;;;;;;4949929;28;20204;-74
2023/07/02 17:34:20;;;;;;;5.45;1.70;;;22.50;95.50;;;;;;4952686;28;20284;-71
2023/07/02 17:36:48;;;;;;;4.60;1.88;;;22.40;95.50;;;;;;4942911;28;20223;-73
2023/07/02 17:39:18;;;;;;;6.22;1.70;;;22.30;94.90;;;;;;4942249;28;20209;-74
2023/07/02 17:41:45;;;;;;;6.72;1.90;;;22.20;95.30;;;;;;4947822;28;20250;-74
2023/07/02 17:44:12;;;;;;;7.38;1.90;;;22.20;95.10;;;;;;4952692;28;20230;-73
2023/07/02 17:46:40;;;;;;;6.82;1.90;;;22.10;95.50;;;;;;4947452;29;20212;-74
2023/07/02 17:49:07;;;;;;;8.40;1.98;;;22.10;95.60;;;;;;4951404;28;20200;-73
2023/07/02 17:51:35;;;;;;;7.00;1.60;;;22.10;95.90;;;;;;4947516;28;20224;-74
2023/07/02 17:54:02;;;;;;;6.70;2.10;;;22.10;94.70;;;;;;4950436;29;20278;-73
2023/07/02 17:56:31;;;;;;;5.13;1.45;;;21.90;95.30;;;;;;4952946;28;20208;-73
2023/07/02 17:58:57;;;;;;;4.38;1.55;;;21.80;95.20;;;;;;4953836;28;20208;-72
2023/07/02 18:01:25;;;;;;;6.65;1.95;;;21.80;95.20;;;;;;4954798;28;20228;-71
2023/07/02 18:03:52;;;;;;;7.15;1.85;;;21.90;95.70;;;;;;4954474;28;20228;-72
2023/07/02 18:06:19;;;;;;;5.75;1.70;;;21.90;95.20;;;;;;4953967;29;20295;-72
2023/07/02 18:08:46;;;;;;;9.18;1.88;;;21.90;95.40;;;;;;4954388;28;20299;-72
2023/07/02 18:11:13;;;;;;;7.70;1.65;;;21.70;96.00;;;;;;4954350;28;20208;-71
2023/07/02 18:13:41;;;;;;;5.53;1.60;;;21.60;95.40;;;;;;4954218;28;20238;-74
2023/07/02 18:16:08;;;;;;;8.82;1.95;;;21.50;96.10;;;;;;4954520;28;20211;-74
2023/07/02 18:18:34;;;;;;;4.65;1.48;;;21.40;94.90;;;;;;4954591;28;20212;-73
2023/07/02 18:21:01;;;;;;;6.00;1.35;;;21.20;95.10;;;;;;4954575;28;20242;-73
2023/07/02 18:23:29;;;;;;;4.55;1.40;;;20.90;95.10;;;;;;4954044;28;20318;-74
2023/07/02 18:25:57;;;;;;;2.38;1.20;;;20.80;95.20;;;;;;4954742;28;20208;-73
2023/07/02 18:28:25;;;;;;;5.78;1.20;;;20.60;95.30;;;;;;4953783;28;20599;-74
2023/07/02 18:30:53;;;;;;;5.00;1.30;;;20.40;95.80;;;;;;4954191;28;20649;-73
2023/07/02 18:33:20;;;;;;;3.25;1.17;;;20.40;95.10;;;;;;4946229;28;20729;-72
2023/07/02 18:35:47;;;;;;;4.53;1.40;;;20.30;95.00;;;;;;4953892;28;20283;-71
2023/07/02 18:38:15;;;;;;;7.00;1.38;;;20.20;95.00;;;;;;4953172;28;20222;-75
2023/07/02 18:40:42;;;;;;;4.45;1.05;;;20.10;95.60;;;;;;4953807;28;20295;-74
2023/07/02 18:43:10;;;;;;;5.95;1.50;;;20.10;95.80;;;;;;4953598;28;20222;-73
2023/07/02 18:45:37;;;;;;;5.45;1.13;;;19.90;95.20;;;;;;4954151;28;20230;-74
2023/07/02 18:48:06;;;;;;;7.88;1.98;;;19.90;95.00;;;;;;4954847;28;20204;-74
2023/07/02 18:50:33;;;;;;;6.20;1.77;;;19.80;94.90;;;;;;4957783;28;20579;-75
2023/07/02 18:53:00;;;;;;;4.93;1.63;;;19.60;94.80;;;;;;4957856;28;20203;-72
2023/07/02 18:55:27;;;;;;;3.88;1.30;;;19.50;95.10;;;;;;4958054;28;20212;-76
2023/07/02 18:57:54;;;;;;;6.13;1.60;;;19.50;95.00;;;;;;4955722;28;20290;-74
2023/07/02 19:00:21;;;;;;;6.60;1.47;;;19.50;95.20;;;;;;4957031;28;20210;-75
2023/07/02 19:02:49;;;;;;;10.43;1.17;;;19.30;95.00;;;;;;4957583;28;20236;-72
2023/07/02 19:05:18;;;;;;;7.33;1.40;;;19.40;95.30;;;;;;4957410;28;20230;-70
2023/07/02 19:07:45;;;;;;;7.07;1.30;;;19.30;95.50;;;;;;4957795;28;20212;-73
2023/07/02 19:10:12;;;;;;;4.22;0.90;;;19.30;95.70;;;;;;4957452;28;20208;-74
2023/07/02 19:12:41;;;;;;;5.07;1.43;;;19.20;96.20;;;;;;4957592;28;20212;-71
2023/07/02 19:15:10;;;;;;;5.03;1.30;;;19.10;95.90;;;;;;4957946;28;20266;-77
2023/07/02 19:17:37;;;;;;;8.83;1.17;;;19.10;96.60;;;;;;4957340;28;20212;-76
2023/07/02 19:20:05;;;;;;;6.43;1.43;;;19.10;96.10;;;;;;4957654;28;20675;-75
2023/07/02 19:22:34;;;;;;;3.73;1.30;;;19.20;96.40;;;;;;4957176;28;20716;-74
2023/07/02 19:25:00;;;;;;;6.60;1.15;;;19.20;96.50;;;;;;4957791;28;20224;-76
2023/07/02 19:27:27;;;;;;;6.67;1.20;;;19.20;96.50;;;;;;4957751;28;20214;-74
2023/07/02 19:29:56;;;;;;;5.07;1.23;;;19.20;96.60;;;;;;4957602;28;20211;-76
2023/07/02 19:32:30;;;;;;;3.10;1.13;;;19.20;96.70;;;;;;4957802;28;20211;-76
2023/07/02 19:34:57;;;;;;;4.30;1.05;;;19.10;96.70;;;;;;4956884;28;20228;-75
2023/07/02 19:37:24;;;;;;;3.97;1.10;;;19.10;96.50;;;;;;4957497;28;20663;-73
2023/07/02 19:39:52;;;;;;;6.77;1.43;;;19.00;96.70;;;;;;4957369;28;20212;-74
2023/07/02 19:42:19;;;;;;;9.03;1.30;;;19.00;96.50;;;;;;4948843;28;20244;-75
2023/07/02 19:44:46;;;;;;;6.23;1.00;;;18.80;96.10;;;;;;4952819;29;20234;-73
2023/07/02 19:47:14;;;;;;;3.00;1.10;;;18.60;96.60;;;;;;4956940;28;20765;-71
2023/07/02 19:49:43;;;;;;;2.27;0.90;;;18.50;96.50;;;;;;4957081;28;20311;-72
2023/07/02 19:52:12;;;;;;;4.20;1.40;;;18.30;96.70;;;;;;4957154;28;20299;-75
2023/07/02 19:54:40;;;;;;;6.47;1.40;;;18.30;96.80;;;;;;4956715;28;20628;-75
2023/07/02 19:57:13;;;;;;;4.60;1.03;;;18.20;96.90;;;;;;4956899;28;20287;-76
2023/07/02 19:59:44;;;;;;;4.83;0.97;;;18.20;97.20;;;;;;4954995;28;20307;-72
2023/07/02 20:02:13;;;;;;;5.77;1.40;;;18.10;97.20;;;;;;4956931;28;20231;-76
2023/07/02 20:04:41;;;;;;;6.07;1.67;;;18.10;97.40;;;;;;4956611;29;20231;-75
2023/07/02 20:07:08;;;;;;;7.73;1.70;;;18.10;97.40;;;;;;4956229;28;20259;-74
2023/07/02 20:09:36;;;;;;;6.73;1.30;;;18.20;97.30;;;;;;4956572;28;20212;-76
2023/07/02 20:12:04;;;;;;;5.43;1.30;;;18.10;97.30;;;;;;4956279;28;20216;-75
2023/07/02 20:14:34;;;;;;;7.67;1.40;;;18.10;97.70;;;;;;4956719;28;20308;-70
2023/07/02 20:17:01;;;;;;;5.37;1.77;;;18.00;97.50;;;;;;4956252;28;20239;-76
2023/07/02 20:19:28;;;;;;;6.10;1.40;;;17.90;97.70;;;;;;4956571;28;20236;-75
2023/07/02 20:21:55;;;;;;;3.17;1.00;;;17.80;97.70;;;;;;4956044;28;20290;-73